Aérodrome :
LOGIN :

S'inscrire | Disclaimer

   EN    FR    IT 

 










Légende :    VFR   VFR Marginal   IFR   IFR Intensif   IFR Très Intensif
Visi : 
Plafond : 
>= 8 km
>= 3000ft
5 à 8 km
1000 à 3000 ft
1500m à 5 km
500 à 1000 ft
800 à 1500m
200 à 500 ft
< 800m
< 200 ft
Symboles :   Orages  Brouillard  Fortes neiges  Fortes précipitations  Vent > 20 kt
SIGMETs :   Divers  Orages  Givrage  Turbulence  Onde Orograph.  Cendres Volcan.






- Altitude de l'aérodrome : 397 ft
- Code IATA : IAS


LRIA - Iasi

DERNIER METAR :
  • 151330Z 31010KT 9999 SCT030 M04/M10 Q1014 R14/490195

METARs EXPIRÉS :
  • 151300Z 32010KT 9999 -SN FEW012 BKN021 BKN030 M04/M07 Q1013 R14/490195
  • 151230Z 32009KT 8000 -SN SCT010 BKN017 BKN024 M03/M06 Q1013 R14/490195
  • 151200Z 32009KT 3000 -SN SCT011 BKN016 BKN032 M03/M05 Q1013 R14/490195
  • 151130Z 30012KT 3000 SN SCT015 BKN018 BKN032 M03/M06 Q1013 R14/490195
  • 151100Z 29008KT 8000 -SN SCT014 BKN018 BKN025 M02/M06 Q1013 R14/490195

TAF TAF LRIA
Valide du 15 à 12h jusqu'au 15 à 21h UTC


151100Z 1512/1521 31010KT 9999 BKN015 OVC030
TEMPO 1512/1516 5000 -SN BR BKN010 BKN025



MET'MAP, la Météo Aéronautique d'un coup d'oeil ! - Copyright ORBIFLY Décembre 2007 - Disclaimer

ORBIFLY MET'MAP TEAM :

Programmation & Développement : Alexandra Zaïnal
Sur une idée originale de : Baudouin d'Aumeries
Assistance à la programmation : Marc-Olivier Méhu
Soutien technique & logistique : Manuel Goepfert

Contact : metmap@orbifly.com




SOURCES & CREDITS :

   NOAA